createdAt,value
2018-08-17T00:01:26.079Z,84.50
2018-08-17T00:03:53.555Z,85.90
2018-08-17T00:06:20.748Z,86.30
2018-08-17T00:08:47.879Z,85.80
2018-08-17T00:11:14.986Z,85.70
2018-08-17T00:13:42.184Z,85.40
2018-08-17T00:16:09.294Z,84.70
2018-08-17T00:18:36.636Z,85.50
2018-08-17T00:21:03.967Z,85.70
2018-08-17T00:23:31.427Z,87.10
2018-08-17T00:25:58.538Z,88.00
2018-08-17T00:28:25.681Z,87.90
2018-08-17T00:30:53.027Z,88.40
2018-08-17T00:33:20.194Z,89.00
2018-08-17T00:35:47.320Z,89.50
2018-08-17T00:38:14.485Z,89.80
2018-08-17T00:40:41.606Z,89.10
2018-08-17T00:43:08.726Z,89.20
2018-08-17T00:45:35.851Z,89.50
2018-08-17T00:48:03.039Z,90.00
2018-08-17T00:50:30.401Z,90.30
2018-08-17T00:52:57.535Z,90.70
2018-08-17T00:55:24.683Z,91.00
2018-08-17T00:57:51.849Z,91.10
2018-08-17T01:00:18.978Z,91.60
2018-08-17T01:02:46.126Z,91.80
2018-08-17T01:05:13.260Z,91.50
2018-08-17T01:07:40.407Z,91.20
2018-08-17T01:10:07.544Z,91.00
2018-08-17T01:12:34.703Z,90.90
2018-08-17T01:15:01.863Z,91.20
2018-08-17T01:17:28.997Z,91.30
2018-08-17T01:19:56.146Z,91.70
2018-08-17T01:22:23.371Z,92.20
2018-08-17T01:24:50.683Z,92.70
2018-08-17T01:27:17.773Z,92.40
2018-08-17T01:29:44.871Z,92.20
2018-08-17T01:32:12.077Z,91.80
2018-08-17T01:34:39.108Z,91.60
2018-08-17T01:37:06.220Z,91.90
2018-08-17T01:39:33.338Z,92.00
2018-08-17T01:42:00.471Z,92.20
2018-08-17T01:44:27.595Z,92.50
2018-08-17T01:46:54.725Z,92.30
2018-08-17T01:49:21.928Z,92.30
2018-08-17T01:51:49.025Z,91.80
2018-08-17T01:54:16.129Z,92.40
2018-08-17T01:56:43.230Z,92.30
2018-08-17T01:59:10.370Z,91.80
2018-08-17T02:01:37.501Z,92.00
2018-08-17T02:04:04.659Z,92.50
2018-08-17T02:06:31.813Z,92.60
2018-08-17T02:08:58.970Z,91.70
2018-08-17T02:11:26.096Z,92.30
2018-08-17T02:13:53.307Z,92.40
2018-08-17T02:16:20.467Z,91.30
2018-08-17T02:18:47.671Z,91.50
2018-08-17T02:21:14.792Z,92.20
2018-08-17T02:23:41.922Z,92.80
2018-08-17T02:26:09.043Z,92.70
2018-08-17T02:28:36.158Z,91.90
2018-08-17T02:31:03.307Z,91.70
2018-08-17T02:33:30.798Z,91.80
2018-08-17T02:35:57.931Z,92.50
2018-08-17T02:38:25.091Z,92.80
2018-08-17T02:40:52.337Z,92.80
2018-08-17T02:43:19.473Z,93.30
2018-08-17T02:45:46.742Z,93.70
2018-08-17T02:48:13.850Z,93.90
2018-08-17T02:50:40.966Z,93.80
2018-08-17T02:53:08.393Z,93.80
2018-08-17T02:55:35.497Z,93.40
2018-08-17T02:58:02.626Z,93.30
2018-08-17T03:00:29.775Z,94.00
2018-08-17T03:02:56.907Z,94.40
2018-08-17T03:05:24.121Z,94.60
2018-08-17T03:07:51.246Z,95.00
2018-08-17T03:10:18.355Z,95.40
2018-08-17T03:12:45.494Z,96.20
2018-08-17T03:15:12.654Z,96.90
2018-08-17T03:17:39.765Z,97.20
2018-08-17T03:20:06.907Z,97.70
2018-08-17T03:22:34.036Z,97.50
2018-08-17T03:25:01.168Z,97.00
2018-08-17T03:27:28.314Z,96.20
2018-08-17T03:29:55.468Z,95.70
2018-08-17T03:32:22.623Z,95.90
2018-08-17T03:34:49.763Z,96.50
2018-08-17T03:37:16.991Z,97.10
2018-08-17T03:39:44.031Z,97.50
2018-08-17T03:42:11.122Z,98.00
2018-08-17T03:44:38.233Z,99.10
2018-08-17T03:47:05.406Z,99.10
2018-08-17T03:49:32.540Z,99.50
2018-08-17T03:51:59.713Z,99.70
2018-08-17T03:54:26.859Z,99.90
2018-08-17T03:56:53.990Z,99.90
2018-08-17T03:59:21.129Z,99.90
2018-08-17T04:01:48.225Z,99.90
2018-08-17T04:04:15.356Z,99.90
2018-08-17T04:06:42.687Z,99.90
2018-08-17T04:09:10.755Z,99.90
2018-08-17T04:11:37.902Z,99.90
2018-08-17T04:14:05.225Z,99.90
2018-08-17T04:16:32.616Z,99.90
2018-08-17T04:19:00.342Z,99.90
2018-08-17T04:21:29.258Z,99.90
2018-08-17T04:23:56.452Z,99.90
2018-08-17T04:26:23.574Z,99.90
2018-08-17T04:28:51.270Z,99.90
2018-08-17T04:31:18.390Z,99.90
2018-08-17T04:33:45.870Z,99.90
2018-08-17T04:36:12.969Z,99.90
2018-08-17T04:38:40.074Z,99.90
2018-08-17T04:41:07.205Z,99.90
2018-08-17T04:43:34.349Z,99.90
2018-08-17T04:46:01.489Z,99.90
2018-08-17T04:48:28.626Z,99.90
2018-08-17T04:50:55.790Z,99.90
2018-08-17T04:53:22.979Z,99.90
2018-08-17T04:55:50.102Z,99.90
2018-08-17T04:58:17.243Z,99.90
2018-08-17T05:00:44.366Z,99.90
2018-08-17T05:03:11.470Z,99.90
2018-08-17T05:05:38.602Z,99.90
2018-08-17T05:08:05.726Z,99.90
2018-08-17T05:10:32.870Z,99.90
2018-08-17T05:12:59.969Z,99.90
2018-08-17T05:15:27.110Z,99.20
2018-08-17T05:17:54.340Z,93.70
2018-08-17T05:20:21.537Z,88.00
2018-08-17T05:22:48.655Z,79.30
2018-08-17T05:25:16.035Z,73.70
2018-08-17T05:27:43.139Z,68.20
2018-08-17T05:30:10.266Z,62.70
2018-08-17T05:32:37.430Z,59.80
2018-08-17T05:35:04.798Z,57.40
2018-08-17T05:37:31.980Z,56.50
2018-08-17T05:39:59.115Z,54.00
2018-08-17T05:42:26.312Z,52.80
2018-08-17T05:44:53.580Z,51.60
2018-08-17T05:47:20.744Z,52.10
2018-08-17T05:49:47.931Z,50.20
2018-08-17T05:52:15.070Z,47.80
2018-08-17T05:54:42.223Z,44.90
2018-08-17T05:57:09.329Z,43.60
2018-08-17T05:59:36.438Z,43.30
2018-08-17T06:02:03.671Z,43.30
2018-08-17T06:04:30.884Z,43.70
2018-08-17T06:06:57.993Z,41.70
2018-08-17T06:09:25.190Z,40.20
2018-08-17T06:11:52.455Z,38.70
2018-08-17T06:14:19.566Z,37.80
2018-08-17T06:16:46.742Z,38.60
2018-08-17T06:19:13.884Z,39.60
2018-08-17T06:21:40.978Z,39.40
2018-08-17T06:24:08.107Z,40.20
2018-08-17T06:26:35.230Z,39.80
2018-08-17T06:29:02.382Z,37.30
2018-08-17T06:31:29.557Z,39.50
2018-08-17T06:33:56.694Z,40.30
2018-08-17T06:36:23.906Z,41.10
2018-08-17T06:38:51.099Z,42.90
2018-08-17T06:41:18.234Z,42.00
2018-08-17T06:43:45.388Z,40.20
2018-08-17T06:46:12.515Z,39.40
2018-08-17T06:48:39.663Z,37.90
2018-08-17T06:51:06.810Z,37.10
2018-08-17T06:53:33.918Z,36.10
2018-08-17T06:56:01.061Z,38.80
2018-08-17T06:58:28.222Z,41.60
2018-08-17T07:00:55.368Z,40.20
2018-08-17T07:03:22.565Z,38.50
2018-08-17T07:05:49.705Z,37.60
2018-08-17T07:08:16.898Z,36.80
2018-08-17T07:10:44.009Z,37.50
2018-08-17T07:13:11.106Z,40.00
2018-08-17T07:15:38.243Z,41.30
2018-08-17T07:18:05.384Z,42.00
2018-08-17T07:20:32.599Z,43.60
2018-08-17T07:22:59.714Z,44.00
2018-08-17T07:25:26.842Z,44.60
2018-08-17T07:27:54.101Z,43.80
2018-08-17T07:30:21.221Z,46.30
2018-08-17T07:32:48.357Z,45.30
2018-08-17T07:35:15.492Z,45.20
2018-08-17T07:37:42.622Z,47.40
2018-08-17T07:40:09.801Z,46.60
2018-08-17T07:42:36.951Z,45.70
2018-08-17T07:45:04.569Z,45.90
2018-08-17T07:47:31.685Z,43.50
2018-08-17T07:49:58.805Z,43.50
2018-08-17T07:52:26.075Z,43.80
2018-08-17T07:54:53.238Z,44.40
2018-08-17T07:57:20.391Z,44.40
2018-08-17T07:59:47.786Z,44.00
2018-08-17T08:02:14.922Z,45.10
2018-08-17T08:04:42.217Z,43.50
2018-08-17T08:07:09.474Z,41.50
2018-08-17T08:09:36.609Z,42.50
2018-08-17T08:12:03.753Z,42.80
2018-08-17T08:14:31.084Z,44.40
2018-08-17T08:16:58.250Z,43.70
2018-08-17T08:19:25.458Z,41.90
2018-08-17T08:21:52.769Z,41.60
2018-08-17T08:24:19.890Z,41.80
2018-08-17T08:26:47.406Z,41.80
2018-08-17T08:29:14.864Z,42.20
2018-08-17T08:31:42.139Z,39.40
2018-08-17T08:34:09.283Z,36.60
2018-08-17T08:36:36.441Z,37.00
2018-08-17T08:39:06.418Z,38.10
2018-08-17T08:41:33.548Z,39.60
2018-08-17T08:44:00.679Z,38.10
2018-08-17T08:46:27.857Z,36.40
2018-08-17T08:48:55.036Z,37.50
2018-08-17T08:51:22.340Z,39.10
2018-08-17T08:53:49.424Z,40.30
2018-08-17T08:56:16.555Z,39.80
2018-08-17T08:58:43.653Z,39.60
2018-08-17T09:01:10.758Z,40.50
2018-08-17T09:03:37.858Z,40.80
2018-08-17T09:06:04.989Z,40.70
2018-08-17T09:08:32.097Z,41.60
2018-08-17T09:10:59.219Z,42.60
2018-08-17T09:13:26.393Z,42.20
2018-08-17T09:15:53.556Z,42.70
2018-08-17T09:18:20.673Z,44.00
2018-08-17T09:20:48.074Z,44.40
2018-08-17T09:23:15.122Z,44.20
2018-08-17T09:25:42.241Z,45.60
2018-08-17T09:28:09.365Z,47.10
2018-08-17T09:30:36.494Z,48.70
2018-08-17T09:33:03.671Z,50.40
2018-08-17T09:35:30.792Z,51.00
2018-08-17T09:37:58.043Z,52.10
2018-08-17T09:40:25.271Z,52.90
2018-08-17T09:42:52.498Z,54.50
2018-08-17T09:45:19.639Z,54.90
2018-08-17T09:47:46.806Z,55.60
2018-08-17T09:50:14.756Z,55.80
2018-08-17T09:52:41.871Z,57.30
2018-08-17T09:55:09.025Z,57.90
2018-08-17T09:57:36.189Z,59.20
2018-08-17T10:00:04.705Z,59.30
2018-08-17T10:02:37.581Z,58.80
2018-08-17T10:05:10.658Z,58.80
2018-08-17T10:07:43.694Z,58.10
2018-08-17T10:10:18.922Z,58.30
2018-08-17T10:12:46.973Z,58.20
2018-08-17T10:15:14.118Z,57.80
2018-08-17T10:17:41.218Z,57.30
2018-08-17T10:20:13.577Z,56.80
2018-08-17T10:22:40.769Z,56.80
2018-08-17T10:25:13.623Z,56.80
2018-08-17T10:27:40.781Z,55.40
2018-08-17T10:30:07.944Z,55.60
2018-08-17T10:32:39.866Z,55.40
2018-08-17T10:35:09.969Z,54.60
2018-08-17T10:37:37.090Z,55.00
2018-08-17T10:40:04.349Z,55.40
2018-08-17T10:42:31.471Z,55.20
2018-08-17T10:44:58.693Z,54.00
2018-08-17T10:47:25.856Z,54.00
2018-08-17T10:49:53.050Z,53.30
2018-08-17T10:52:20.198Z,53.40
2018-08-17T10:54:47.302Z,53.50
2018-08-17T10:57:14.410Z,54.00
2018-08-17T10:59:41.526Z,54.10
2018-08-17T11:02:08.673Z,54.30
2018-08-17T11:04:35.784Z,54.40
2018-08-17T11:07:02.931Z,53.90
2018-08-17T11:09:30.058Z,53.90
2018-08-17T11:11:57.203Z,53.70
2018-08-17T11:14:24.332Z,53.10
2018-08-17T11:16:52.013Z,52.50
2018-08-17T11:19:19.121Z,52.00
2018-08-17T11:21:46.220Z,52.20
2018-08-17T11:24:13.346Z,52.10
2018-08-17T11:26:40.498Z,52.00
2018-08-17T11:29:07.642Z,51.60
2018-08-17T11:31:34.825Z,51.10
2018-08-17T11:34:01.949Z,50.90
2018-08-17T11:36:29.071Z,50.30
2018-08-17T11:38:56.405Z,51.20
2018-08-17T11:41:23.635Z,50.30
2018-08-17T11:43:50.794Z,50.10
2018-08-17T11:46:17.910Z,50.10
2018-08-17T11:48:45.078Z,50.40
2018-08-17T11:51:12.185Z,50.40
2018-08-17T11:53:39.351Z,50.00
2018-08-17T11:56:06.477Z,49.60
2018-08-17T11:58:33.585Z,49.50
2018-08-17T12:01:00.795Z,49.30
2018-08-17T12:03:28.250Z,49.20
2018-08-17T12:05:55.434Z,47.80
2018-08-17T12:08:22.696Z,47.00
2018-08-17T12:10:55.430Z,47.00
2018-08-17T12:13:22.595Z,48.20
2018-08-17T12:15:54.732Z,49.20
2018-08-17T12:18:21.934Z,49.60
2018-08-17T12:20:49.065Z,50.10
2018-08-17T12:23:16.178Z,49.50
2018-08-17T12:25:50.494Z,49.10
2018-08-17T12:28:17.622Z,48.80
2018-08-17T12:30:44.743Z,48.40
2018-08-17T12:33:12.675Z,48.30
2018-08-17T12:35:40.231Z,47.80
2018-08-17T12:38:14.592Z,47.60
2018-08-17T12:40:45.837Z,46.90
2018-08-17T12:43:14.310Z,47.30
2018-08-17T12:45:41.420Z,47.80
2018-08-17T12:48:08.534Z,47.60
2018-08-17T12:50:35.681Z,47.80
2018-08-17T12:53:02.867Z,47.80
2018-08-17T12:55:30.226Z,47.40
2018-08-17T12:57:57.481Z,47.20
2018-08-17T13:00:24.631Z,46.90
2018-08-17T13:02:51.871Z,47.20
2018-08-17T13:05:18.994Z,46.80
2018-08-17T13:07:46.122Z,46.60
2018-08-17T13:10:13.242Z,47.00
2018-08-17T13:12:40.371Z,47.20
2018-08-17T13:15:07.514Z,47.40
2018-08-17T13:17:40.602Z,47.10
2018-08-17T13:20:07.705Z,47.00
2018-08-17T13:22:34.863Z,46.80
2018-08-17T13:25:01.990Z,46.90
2018-08-17T13:27:29.170Z,46.60
2018-08-17T13:29:56.567Z,46.70
2018-08-17T13:32:23.847Z,46.80
2018-08-17T13:34:51.206Z,46.20
2018-08-17T13:37:18.371Z,45.90
2018-08-17T13:39:45.554Z,45.60
2018-08-17T13:42:12.663Z,46.00
2018-08-17T13:44:39.802Z,46.60
2018-08-17T13:47:06.989Z,47.50
2018-08-17T13:49:34.128Z,48.70
2018-08-17T13:52:01.455Z,49.30
2018-08-17T13:54:28.642Z,50.00
2018-08-17T13:56:56.002Z,50.40
2018-08-17T13:59:23.158Z,50.30
2018-08-17T14:01:50.313Z,50.60
2018-08-17T14:04:17.417Z,50.30
2018-08-17T14:06:44.518Z,50.80
2018-08-17T14:09:11.605Z,50.60
2018-08-17T14:11:38.725Z,50.40
2018-08-17T14:14:05.858Z,50.20
2018-08-17T14:16:33.005Z,50.20
2018-08-17T14:19:00.108Z,50.20
2018-08-17T14:21:27.234Z,50.20
2018-08-17T14:23:54.397Z,50.40
2018-08-17T14:26:21.547Z,50.30
2018-08-17T14:28:48.711Z,50.10
2018-08-17T14:31:15.789Z,50.10
2018-08-17T14:33:42.915Z,50.00
2018-08-17T14:36:10.090Z,50.10
2018-08-17T14:38:37.193Z,50.40
2018-08-17T14:41:04.934Z,50.10
2018-08-17T14:43:32.483Z,50.00
2018-08-17T14:45:59.622Z,50.30
2018-08-17T14:48:26.835Z,50.30
2018-08-17T14:50:54.177Z,50.20
2018-08-17T14:53:21.289Z,51.00
2018-08-17T14:55:48.552Z,51.70
2018-08-17T14:58:15.861Z,52.00
2018-08-17T15:00:43.024Z,52.70
2018-08-17T15:03:10.198Z,53.30
2018-08-17T15:05:37.650Z,54.20
2018-08-17T15:08:04.797Z,54.40
2018-08-17T15:10:31.919Z,55.00
2018-08-17T15:12:59.091Z,56.00
2018-08-17T15:15:26.219Z,57.10
2018-08-17T15:17:53.392Z,57.40
2018-08-17T15:20:20.539Z,57.80
2018-08-17T15:22:47.677Z,58.10
2018-08-17T15:25:14.821Z,58.10
2018-08-17T15:27:41.966Z,57.70
2018-08-17T15:30:10.229Z,58.10
2018-08-17T15:32:37.802Z,58.40
2018-08-17T15:35:05.367Z,58.60
2018-08-17T15:37:32.546Z,58.10
2018-08-17T15:39:59.712Z,58.30
2018-08-17T15:42:26.900Z,58.20
2018-08-17T15:44:54.165Z,58.50
2018-08-17T15:47:21.345Z,58.20
2018-08-17T15:50:05.442Z,58.10
2018-08-17T15:52:32.598Z,57.60
2018-08-17T15:54:59.715Z,57.30
2018-08-17T15:57:27.052Z,57.10
2018-08-17T15:59:54.188Z,56.90
2018-08-17T16:02:21.349Z,56.90
2018-08-17T16:04:48.529Z,56.90
2018-08-17T16:07:15.599Z,57.10
2018-08-17T16:09:42.732Z,57.90
2018-08-17T16:12:09.873Z,57.80
2018-08-17T16:14:36.988Z,57.90
2018-08-17T16:17:04.089Z,58.00
2018-08-17T16:19:31.288Z,58.30
2018-08-17T16:21:58.462Z,58.40
2018-08-17T16:24:25.681Z,59.20
2018-08-17T16:26:52.982Z,59.30
2018-08-17T16:29:20.099Z,58.80
2018-08-17T16:31:47.237Z,58.90
2018-08-17T16:34:14.424Z,60.20
2018-08-17T16:36:42.184Z,59.60
2018-08-17T16:39:12.304Z,59.60
2018-08-17T16:41:39.494Z,59.60
2018-08-17T16:44:06.642Z,60.70
2018-08-17T16:46:33.931Z,61.60
2018-08-17T16:49:01.099Z,61.60
2018-08-17T16:51:28.240Z,62.30
2018-08-17T16:53:55.465Z,63.50
2018-08-17T16:56:22.663Z,63.80
2018-08-17T16:58:50.021Z,64.30
2018-08-17T17:01:17.134Z,64.90
2018-08-17T17:03:44.290Z,65.50
2018-08-17T17:06:11.446Z,65.70
2018-08-17T17:08:38.582Z,66.20
2018-08-17T17:11:06.395Z,66.50
2018-08-17T17:13:38.301Z,66.80
2018-08-17T17:16:05.470Z,66.30
2018-08-17T17:18:32.598Z,67.10
2018-08-17T17:20:59.785Z,67.80
2018-08-17T17:23:26.979Z,67.90
2018-08-17T17:25:54.222Z,68.20
2018-08-17T17:28:21.430Z,69.10
2018-08-17T17:30:49.721Z,69.00
2018-08-17T17:33:16.884Z,69.40
2018-08-17T17:35:44.157Z,69.40
2018-08-17T17:38:11.697Z,69.40
2018-08-17T17:40:39.526Z,70.10
2018-08-17T17:43:07.052Z,70.50
2018-08-17T17:45:34.584Z,70.90
2018-08-17T17:48:02.307Z,71.40
2018-08-17T17:50:29.877Z,72.30
2018-08-17T17:52:57.337Z,73.00
2018-08-17T17:55:34.749Z,73.50
2018-08-17T17:58:01.933Z,74.10
2018-08-17T18:00:29.181Z,74.80
2018-08-17T18:02:56.503Z,75.20
2018-08-17T18:05:23.648Z,76.00
2018-08-17T18:07:50.825Z,76.60
2018-08-17T18:10:19.662Z,77.40
2018-08-17T18:12:47.018Z,78.00
2018-08-17T18:15:14.171Z,78.30
2018-08-17T18:17:41.365Z,79.50
2018-08-17T18:20:09.557Z,79.40
2018-08-17T18:22:36.713Z,79.50
2018-08-17T18:25:09.625Z,80.70
2018-08-17T18:27:36.815Z,81.10
2018-08-17T18:30:04.453Z,81.70
2018-08-17T18:32:31.546Z,81.90
2018-08-17T18:34:58.754Z,82.90
2018-08-17T18:37:25.989Z,82.70
2018-08-17T18:39:53.139Z,83.60
2018-08-17T18:42:20.278Z,84.20
2018-08-17T18:44:47.442Z,84.60
2018-08-17T18:47:14.580Z,84.80
2018-08-17T18:49:41.718Z,85.60
2018-08-17T18:52:08.925Z,86.30
2018-08-17T18:54:36.048Z,86.50
2018-08-17T18:57:03.215Z,87.60
2018-08-17T18:59:30.342Z,88.70
2018-08-17T19:01:57.485Z,88.60
2018-08-17T19:04:24.679Z,89.40
2018-08-17T19:06:51.945Z,90.00
2018-08-17T19:09:19.055Z,90.50
2018-08-17T19:11:46.199Z,90.60
2018-08-17T19:14:13.310Z,90.80
2018-08-17T19:16:40.468Z,91.20
2018-08-17T19:19:08.005Z,91.60
2018-08-17T19:21:35.117Z,91.50
2018-08-17T19:24:07.197Z,91.70
2018-08-17T19:26:34.325Z,92.00
2018-08-17T19:29:01.436Z,92.30
2018-08-17T19:31:28.580Z,92.40
2018-08-17T19:33:55.774Z,92.60
2018-08-17T19:36:23.008Z,92.80
2018-08-17T19:38:50.154Z,93.10
2018-08-17T19:41:17.269Z,93.40
2018-08-17T19:43:44.405Z,93.60
2018-08-17T19:46:11.615Z,93.80
2018-08-17T19:48:38.649Z,93.60
2018-08-17T19:51:11.578Z,93.60
2018-08-17T19:53:38.718Z,93.10
2018-08-17T19:56:05.849Z,92.60
2018-08-17T19:58:32.971Z,92.10
2018-08-17T20:01:00.100Z,92.10
2018-08-17T20:03:27.264Z,92.10
2018-08-17T20:05:54.614Z,92.30
2018-08-17T20:08:22.310Z,92.30
2018-08-17T20:10:49.521Z,92.60
2018-08-17T20:13:16.646Z,92.40
2018-08-17T20:15:43.789Z,92.20
2018-08-17T20:18:10.918Z,92.30
2018-08-17T20:20:38.287Z,92.10
2018-08-17T20:23:05.437Z,92.30
2018-08-17T20:25:32.585Z,92.30
2018-08-17T20:27:59.787Z,92.50
2018-08-17T20:30:26.945Z,92.60
2018-08-17T20:32:54.188Z,92.40
2018-08-17T20:35:21.349Z,92.60
2018-08-17T20:37:51.027Z,92.10
2018-08-17T20:40:18.378Z,91.60
2018-08-17T20:42:45.804Z,91.20
2018-08-17T20:45:12.937Z,91.00
2018-08-17T20:47:40.842Z,90.30
2018-08-17T20:50:11.193Z,90.10
2018-08-17T20:52:46.908Z,89.70
2018-08-17T20:55:14.034Z,90.40
2018-08-17T20:57:41.161Z,90.10
2018-08-17T21:00:08.289Z,89.40
2018-08-17T21:02:35.392Z,87.80
2018-08-17T21:05:02.547Z,87.10
2018-08-17T21:07:29.669Z,87.50
2018-08-17T21:09:56.961Z,87.30
2018-08-17T21:12:24.152Z,87.40
2018-08-17T21:14:51.320Z,86.10
2018-08-17T21:17:18.481Z,86.00
2018-08-17T21:19:45.594Z,86.30
2018-08-17T21:22:12.751Z,86.50
2018-08-17T21:24:39.897Z,86.00
2018-08-17T21:27:07.030Z,86.60
2018-08-17T21:29:34.187Z,86.30
2018-08-17T21:32:01.338Z,85.80
2018-08-17T21:34:28.536Z,85.80
2018-08-17T21:36:55.776Z,84.50
2018-08-17T21:39:22.958Z,84.90
2018-08-17T21:41:50.149Z,85.60
2018-08-17T21:44:18.501Z,85.60
2018-08-17T21:46:54.169Z,84.90
2018-08-17T21:49:22.440Z,84.80
2018-08-17T21:51:53.524Z,84.80
2018-08-17T21:54:20.671Z,85.40
2018-08-17T21:56:47.883Z,84.30
2018-08-17T21:59:14.985Z,84.60
2018-08-17T22:01:42.190Z,85.60
2018-08-17T22:04:09.315Z,85.40
2018-08-17T22:06:36.445Z,86.20
2018-08-17T22:09:05.705Z,86.60
2018-08-17T22:11:34.517Z,86.10
2018-08-17T22:14:01.731Z,85.80
2018-08-17T22:16:28.910Z,86.10
2018-08-17T22:18:56.164Z,86.30
2018-08-17T22:21:24.384Z,86.70
2018-08-17T22:23:51.628Z,86.10
2018-08-17T22:26:19.181Z,86.60
2018-08-17T22:28:46.310Z,87.10
2018-08-17T22:31:14.667Z,88.80
2018-08-17T22:33:41.799Z,89.00
2018-08-17T22:36:14.577Z,89.50
2018-08-17T22:38:44.705Z,89.70
2018-08-17T22:41:12.356Z,90.00
2018-08-17T22:43:39.457Z,90.20
2018-08-17T22:46:06.691Z,90.20
2018-08-17T22:48:33.939Z,90.00
2018-08-17T22:51:00.986Z,90.10
2018-08-17T22:53:28.174Z,90.30
2018-08-17T22:55:55.437Z,90.10
2018-08-17T22:58:22.620Z,90.00
2018-08-17T23:00:49.747Z,89.80
2018-08-17T23:03:16.857Z,89.90
2018-08-17T23:05:43.986Z,90.00
2018-08-17T23:08:11.167Z,90.00
2018-08-17T23:10:38.302Z,90.40
2018-08-17T23:13:05.433Z,90.90
2018-08-17T23:15:32.603Z,91.40
2018-08-17T23:18:00.557Z,91.30
2018-08-17T23:20:32.941Z,91.60
2018-08-17T23:23:00.897Z,92.00
2018-08-17T23:25:28.084Z,92.30
2018-08-17T23:27:55.267Z,92.70
2018-08-17T23:30:22.532Z,92.50
2018-08-17T23:32:49.704Z,92.30
2018-08-17T23:35:16.873Z,92.10
2018-08-17T23:37:44.058Z,92.70
2018-08-17T23:40:11.218Z,93.10
2018-08-17T23:42:38.433Z,93.30
2018-08-17T23:45:07.161Z,93.30
2018-08-17T23:47:34.583Z,93.60
2018-08-17T23:50:01.788Z,94.10
2018-08-17T23:52:28.966Z,94.30
2018-08-17T23:54:56.160Z,94.40
2018-08-17T23:57:24.241Z,94.30
2018-08-17T23:59:51.402Z,94.50
